KFLL/FLL METAR and TAF weather

Enter ICAO airport designator
Station Type Date Time Source
KFLL METAR 2024/04/18 06:53 UTC NOAA

KFLL 180653Z 11008KT 10SM FEW031 25/16 A3006 RMK AO2 SLP177 T02500161 $


Station Type Date Time Source
KFLL Decoded METAR 2024/04/18 06:53 UTC NOAA

FORT LAUDERDALE/HOLLYWOOD, FL, United States (KFLL) 26-04N 080-09W 30M
Apr 18, 2024 - 02:53 AM EDT / 2024.04.18 0653 UTC
Wind: from the ESE (110 degrees) at 9 MPH (8 KT):0
Visibility: 10 mile(s):0
Sky conditions: mostly clear
Temperature: 77.0 F (25.0 C)
Dew Point: 61.0 F (16.1 C)
Relative Humidity: 57%
Pressure (altimeter): 30.06 in. Hg (1017 hPa)
ob: KFLL 180653Z 11008KT 10SM FEW031 25/16 A3006 RMK AO2 SLP177 T02500161
cycle: 7

Station Type Date Time Source
KFLL TAF 2024/04/18 21:06 UTC NOAA